sensor_id;sensor_type;location;lat;lon;timestamp;pressure;altitude;pressure_sealevel;temperature;humidity
74163;BME280;62515;52.758;5.076;2024-01-25T00:00:20;102727.25;;;6.70;100.00
74163;BME280;62515;52.758;5.076;2024-01-25T00:02:48;102731.56;;;6.76;100.00
74163;BME280;62515;52.758;5.076;2024-01-25T00:05:15;102735.13;;;6.73;100.00
74163;BME280;62515;52.758;5.076;2024-01-25T00:07:47;102746.00;;;6.63;100.00
74163;BME280;62515;52.758;5.076;2024-01-25T00:10:15;102754.03;;;6.58;100.00
74163;BME280;62515;52.758;5.076;2024-01-25T00:12:42;102736.72;;;6.45;100.00
74163;BME280;62515;52.758;5.076;2024-01-25T00:15:09;102745.56;;;6.44;100.00
74163;BME280;62515;52.758;5.076;2024-01-25T00:17:37;102733.19;;;6.46;100.00
74163;BME280;62515;52.758;5.076;2024-01-25T00:20:05;102738.34;;;6.51;100.00
74163;BME280;62515;52.758;5.076;2024-01-25T00:22:32;102748.97;;;6.49;100.00
74163;BME280;62515;52.758;5.076;2024-01-25T00:25:00;102741.72;;;6.57;100.00
74163;BME280;62515;52.758;5.076;2024-01-25T00:27:27;102742.63;;;6.56;100.00
74163;BME280;62515;52.758;5.076;2024-01-25T00:29:54;102744.41;;;6.56;100.00
74163;BME280;62515;52.758;5.076;2024-01-25T00:32:21;102736.72;;;6.45;100.00
74163;BME280;62515;52.758;5.076;2024-01-25T00:34:48;102737.38;;;6.55;100.00
74163;BME280;62515;52.758;5.076;2024-01-25T00:37:16;102747.16;;;6.51;100.00
74163;BME280;62515;52.758;5.076;2024-01-25T00:39:44;102748.00;;;6.53;100.00
74163;BME280;62515;52.758;5.076;2024-01-25T00:42:13;102739.44;;;6.44;100.00
74163;BME280;62515;52.758;5.076;2024-01-25T00:44:40;102757.56;;;6.57;100.00
74163;BME280;62515;52.758;5.076;2024-01-25T00:47:08;102758.38;;;6.61;100.00
74163;BME280;62515;52.758;5.076;2024-01-25T00:49:36;102767.50;;;6.49;100.00
74163;BME280;62515;52.758;5.076;2024-01-25T00:52:03;102767.66;;;6.42;100.00
74163;BME280;62515;52.758;5.076;2024-01-25T00:54:31;102766.63;;;6.47;100.00
74163;BME280;62515;52.758;5.076;2024-01-25T00:56:58;102753.47;;;6.46;100.00
74163;BME280;62515;52.758;5.076;2024-01-25T00:59:27;102760.44;;;6.48;100.00
74163;BME280;62515;52.758;5.076;2024-01-25T01:01:55;102760.44;;;6.50;100.00
74163;BME280;62515;52.758;5.076;2024-01-25T01:04:24;102749.22;;;6.40;100.00
74163;BME280;62515;52.758;5.076;2024-01-25T01:06:52;102753.38;;;6.49;100.00
74163;BME280;62515;52.758;5.076;2024-01-25T01:09:19;102765.72;;;6.50;100.00
74163;BME280;62515;52.758;5.076;2024-01-25T01:11:46;102754.34;;;6.46;100.00
74163;BME280;62515;52.758;5.076;2024-01-25T01:14:13;102778.00;;;6.51;100.00
74163;BME280;62515;52.758;5.076;2024-01-25T01:16:41;102779.13;;;6.41;100.00
74163;BME280;62515;52.758;5.076;2024-01-25T01:19:08;102777.38;;;6.41;100.00
74163;BME280;62515;52.758;5.076;2024-01-25T01:21:35;102776.72;;;6.31;100.00
74163;BME280;62515;52.758;5.076;2024-01-25T01:24:03;102767.63;;;6.43;100.00
74163;BME280;62515;52.758;5.076;2024-01-25T01:26:29;102788.16;;;6.32;100.00
74163;BME280;62515;52.758;5.076;2024-01-25T01:28:57;102794.22;;;6.37;100.00
74163;BME280;62515;52.758;5.076;2024-01-25T01:31:23;102797.00;;;6.31;100.00
74163;BME280;62515;52.758;5.076;2024-01-25T01:33:52;102803.13;;;6.33;100.00
74163;BME280;62515;52.758;5.076;2024-01-25T01:36:19;102811.28;;;6.24;100.00
74163;BME280;62515;52.758;5.076;2024-01-25T01:38:46;102812.13;;;6.24;100.00
74163;BME280;62515;52.758;5.076;2024-01-25T01:41:12;102812.38;;;6.14;100.00
74163;BME280;62515;52.758;5.076;2024-01-25T01:43:39;102802.78;;;6.08;100.00
74163;BME280;62515;52.758;5.076;2024-01-25T01:46:20;102806.00;;;6.22;100.00
74163;BME280;62515;52.758;5.076;2024-01-25T01:48:54;102819.38;;;6.15;100.00
74163;BME280;62515;52.758;5.076;2024-01-25T01:51:22;102807.28;;;6.05;100.00
74163;BME280;62515;52.758;5.076;2024-01-25T01:53:49;102810.78;;;6.05;100.00
74163;BME280;62515;52.758;5.076;2024-01-25T01:56:16;102816.13;;;6.04;100.00
74163;BME280;62515;52.758;5.076;2024-01-25T01:58:44;102815.16;;;6.08;100.00
74163;BME280;62515;52.758;5.076;2024-01-25T02:01:13;102816.88;;;6.09;100.00
74163;BME280;62515;52.758;5.076;2024-01-25T02:03:40;102818.84;;;6.01;100.00
74163;BME280;62515;52.758;5.076;2024-01-25T02:06:08;102819.78;;;5.98;100.00
74163;BME280;62515;52.758;5.076;2024-01-25T02:08:35;102820.81;;;5.90;100.00
74163;BME280;62515;52.758;5.076;2024-01-25T02:11:02;102830.50;;;5.91;100.00
74163;BME280;62515;52.758;5.076;2024-01-25T02:13:29;102840.19;;;5.92;100.00
74163;BME280;62515;52.758;5.076;2024-01-25T02:15:55;102836.78;;;5.84;100.00
74163;BME280;62515;52.758;5.076;2024-01-25T02:18:22;102843.94;;;5.78;100.00
74163;BME280;62515;52.758;5.076;2024-01-25T02:20:50;102833.53;;;5.69;100.00
74163;BME280;62515;52.758;5.076;2024-01-25T02:23:18;102830.69;;;5.80;100.00
74163;BME280;62515;52.758;5.076;2024-01-25T02:25:45;102831.63;;;5.77;100.00
74163;BME280;62515;52.758;5.076;2024-01-25T02:28:12;102831.81;;;5.68;100.00
74163;BME280;62515;52.758;5.076;2024-01-25T02:30:38;102831.94;;;5.62;100.00
74163;BME280;62515;52.758;5.076;2024-01-25T02:33:05;102842.31;;;5.70;100.00
74163;BME280;62515;52.758;5.076;2024-01-25T02:35:32;102837.22;;;5.62;100.00
74163;BME280;62515;52.758;5.076;2024-01-25T02:38:00;102830.03;;;5.69;100.00
74163;BME280;62515;52.758;5.076;2024-01-25T02:40:28;102838.00;;;5.66;100.00
74163;BME280;62515;52.758;5.076;2024-01-25T02:42:55;102843.06;;;5.78;100.00
74163;BME280;62515;52.758;5.076;2024-01-25T02:45:22;102838.66;;;5.78;100.00
74163;BME280;62515;52.758;5.076;2024-01-25T02:47:49;102831.56;;;5.80;100.00
74163;BME280;62515;52.758;5.076;2024-01-25T02:50:16;102844.41;;;5.99;100.00
74163;BME280;62515;52.758;5.076;2024-01-25T02:52:43;102847.22;;;5.91;100.00
74163;BME280;62515;52.758;5.076;2024-01-25T02:55:10;102842.91;;;5.87;100.00
74163;BME280;62515;52.758;5.076;2024-01-25T02:57:38;102837.16;;;5.65;100.00
74163;BME280;62515;52.758;5.076;2024-01-25T03:00:06;102848.03;;;5.47;100.00
74163;BME280;62515;52.758;5.076;2024-01-25T03:02:33;102840.47;;;5.29;100.00
74163;BME280;62515;52.758;5.076;2024-01-25T03:05:00;102851.81;;;5.34;100.00
74163;BME280;62515;52.758;5.076;2024-01-25T03:07:27;102844.63;;;5.42;100.00
74163;BME280;62515;52.758;5.076;2024-01-25T03:09:54;102837.59;;;5.43;100.00
74163;BME280;62515;52.758;5.076;2024-01-25T03:12:21;102844.63;;;5.42;100.00
74163;BME280;62515;52.758;5.076;2024-01-25T03:14:49;102850.03;;;5.36;100.00
74163;BME280;62515;52.758;5.076;2024-01-25T03:17:16;102852.97;;;5.18;100.00
74163;BME280;62515;52.758;5.076;2024-01-25T03:19:43;102859.47;;;4.99;100.00
74163;BME280;62515;52.758;5.076;2024-01-25T03:22:10;102847.41;;;4.83;100.00
74163;BME280;62515;52.758;5.076;2024-01-25T03:24:37;102848.44;;;4.72;100.00
74163;BME280;62515;52.758;5.076;2024-01-25T03:27:04;102840.69;;;4.63;100.00
74163;BME280;62515;52.758;5.076;2024-01-25T03:29:31;102842.53;;;4.55;100.00
74163;BME280;62515;52.758;5.076;2024-01-25T03:31:59;102837.41;;;4.46;100.00
74163;BME280;62515;52.758;5.076;2024-01-25T03:34:26;102824.22;;;4.46;100.00
74163;BME280;62515;52.758;5.076;2024-01-25T03:36:53;102828.63;;;4.47;100.00
74163;BME280;62515;52.758;5.076;2024-01-25T03:39:19;102821.75;;;4.37;100.00
74163;BME280;62515;52.758;5.076;2024-01-25T03:41:46;102815.50;;;4.43;100.00
74163;BME280;62515;52.758;5.076;2024-01-25T03:44:13;102819.78;;;4.50;100.00
74163;BME280;62515;52.758;5.076;2024-01-25T03:46:40;102822.53;;;4.44;100.00
74163;BME280;62515;52.758;5.076;2024-01-25T03:49:08;102822.38;;;4.54;100.00
74163;BME280;62515;52.758;5.076;2024-01-25T03:51:35;102818.06;;;4.47;100.00
74163;BME280;62515;52.758;5.076;2024-01-25T03:54:03;102819.00;;;4.43;100.00
74163;BME280;62515;52.758;5.076;2024-01-25T03:56:29;102820.03;;;4.33;100.00
74163;BME280;62515;52.758;5.076;2024-01-25T03:58:56;102822.66;;;4.35;100.00
74163;BME280;62515;52.758;5.076;2024-01-25T04:01:23;102833.25;;;4.30;100.00
74163;BME280;62515;52.758;5.076;2024-01-25T04:03:54;102835.00;;;4.31;100.00
74163;BME280;62515;52.758;5.076;2024-01-25T04:06:22;102843.94;;;4.19;100.00
74163;BME280;62515;52.758;5.076;2024-01-25T04:08:49;102843.19;;;4.10;100.00
74163;BME280;62515;52.758;5.076;2024-01-25T04:11:16;102839.75;;;4.05;100.00
74163;BME280;62515;52.758;5.076;2024-01-25T04:13:43;102844.94;;;4.11;100.00
74163;BME280;62515;52.758;5.076;2024-01-25T04:16:14;102844.84;;;4.17;100.00
74163;BME280;62515;52.758;5.076;2024-01-25T04:18:41;102852.00;;;4.09;100.00
74163;BME280;62515;52.758;5.076;2024-01-25T04:21:08;102846.88;;;3.97;100.00
74163;BME280;62515;52.758;5.076;2024-01-25T04:23:36;102846.69;;;4.12;100.00
74163;BME280;62515;52.758;5.076;2024-01-25T04:26:03;102846.78;;;4.06;100.00
74163;BME280;62515;52.758;5.076;2024-01-25T04:28:29;102855.69;;;3.96;100.00
74163;BME280;62515;52.758;5.076;2024-01-25T04:30:57;102853.88;;;3.98;100.00
74163;BME280;62515;52.758;5.076;2024-01-25T04:33:24;102859.25;;;3.92;100.00
74163;BME280;62515;52.758;5.076;2024-01-25T04:35:51;102856.72;;;3.83;100.00
74163;BME280;62515;52.758;5.076;2024-01-25T04:38:18;102861.91;;;3.87;100.00
74163;BME280;62515;52.758;5.076;2024-01-25T04:40:46;102858.25;;;4.02;100.00
74163;BME280;62515;52.758;5.076;2024-01-25T04:43:13;102851.41;;;3.86;100.00
74163;BME280;62515;52.758;5.076;2024-01-25T04:45:40;102857.59;;;3.82;100.00
74163;BME280;62515;52.758;5.076;2024-01-25T04:48:07;102858.28;;;3.99;100.00
74163;BME280;62515;52.758;5.076;2024-01-25T04:50:34;102858.31;;;3.94;100.00
74163;BME280;62515;52.758;5.076;2024-01-25T04:53:01;102850.44;;;3.93;100.00
74163;BME280;62515;52.758;5.076;2024-01-25T04:55:28;102847.03;;;3.86;100.00
74163;BME280;62515;52.758;5.076;2024-01-25T04:57:57;102839.00;;;3.94;100.00
74163;BME280;62515;52.758;5.076;2024-01-25T05:00:23;102830.25;;;3.92;100.00
74163;BME280;62515;52.758;5.076;2024-01-25T05:02:50;102820.59;;;3.92;100.00
74163;BME280;62515;52.758;5.076;2024-01-25T05:05:17;102828.50;;;3.92;100.00
74163;BME280;62515;52.758;5.076;2024-01-25T05:07:44;102838.97;;;4.00;100.00
74163;BME280;62515;52.758;5.076;2024-01-25T05:10:11;102849.50;;;3.97;100.00
74163;BME280;62515;52.758;5.076;2024-01-25T05:12:38;102852.22;;;3.91;100.00
74163;BME280;62515;52.758;5.076;2024-01-25T05:15:07;102846.91;;;3.94;100.00
74163;BME280;62515;52.758;5.076;2024-01-25T05:17:34;102841.69;;;3.92;100.00
74163;BME280;62515;52.758;5.076;2024-01-25T05:20:01;102835.59;;;3.86;100.00
74163;BME280;62515;52.758;5.076;2024-01-25T05:22:28;102840.78;;;3.92;100.00
74163;BME280;62515;52.758;5.076;2024-01-25T05:24:55;102850.50;;;3.90;100.00
74163;BME280;62515;52.758;5.076;2024-01-25T05:27:22;102852.94;;;4.05;100.00
74163;BME280;62515;52.758;5.076;2024-01-25T05:29:49;102860.81;;;4.05;100.00
74163;BME280;62515;52.758;5.076;2024-01-25T05:32:17;102858.19;;;4.05;100.00
74163;BME280;62515;52.758;5.076;2024-01-25T05:34:44;102855.53;;;4.08;100.00
74163;BME280;62515;52.758;5.076;2024-01-25T05:37:11;102854.72;;;4.03;100.00
74163;BME280;62515;52.758;5.076;2024-01-25T05:39:38;102854.63;;;4.09;100.00
74163;BME280;62515;52.758;5.076;2024-01-25T05:42:05;102854.66;;;4.07;100.00
74163;BME280;62515;52.758;5.076;2024-01-25T05:44:32;102859.19;;;3.95;100.00
74163;BME280;62515;52.758;5.076;2024-01-25T05:46:59;102859.31;;;3.84;100.00
74163;BME280;62515;52.758;5.076;2024-01-25T05:49:27;102861.16;;;3.79;100.00
74163;BME280;62515;52.758;5.076;2024-01-25T05:51:54;102860.41;;;3.66;100.00
74163;BME280;62515;52.758;5.076;2024-01-25T05:54:21;102856.22;;;3.47;100.00
74163;BME280;62515;52.758;5.076;2024-01-25T05:56:48;102854.44;;;3.49;100.00
74163;BME280;62515;52.758;5.076;2024-01-25T05:59:16;102854.50;;;3.43;100.00
74163;BME280;62515;52.758;5.076;2024-01-25T06:01:43;102860.56;;;3.53;100.00
74163;BME280;62515;52.758;5.076;2024-01-25T06:04:10;102859.63;;;3.57;100.00
74163;BME280;62515;52.758;5.076;2024-01-25T06:06:38;102868.38;;;3.60;100.00
74163;BME280;62515;52.758;5.076;2024-01-25T06:09:05;102878.81;;;3.69;100.00
74163;BME280;62515;52.758;5.076;2024-01-25T06:11:39;102870.00;;;3.74;100.00
74163;BME280;62515;52.758;5.076;2024-01-25T06:14:06;102879.69;;;3.68;100.00
74163;BME280;62515;52.758;5.076;2024-01-25T06:16:33;102880.66;;;3.58;100.00
74163;BME280;62515;52.758;5.076;2024-01-25T06:18:59;102895.69;;;3.50;100.00
74163;BME280;62515;52.758;5.076;2024-01-25T06:21:26;102901.91;;;3.40;100.00
74163;BME280;62515;52.758;5.076;2024-01-25T06:23:54;102898.41;;;3.38;100.00
74163;BME280;62515;52.758;5.076;2024-01-25T06:26:21;102878.41;;;3.19;100.00
74163;BME280;62515;52.758;5.076;2024-01-25T06:28:48;102895.06;;;3.21;100.00
74163;BME280;62515;52.758;5.076;2024-01-25T06:31:15;102902.16;;;3.13;100.00
74163;BME280;62515;52.758;5.076;2024-01-25T06:33:42;102906.56;;;3.11;100.00
74163;BME280;62515;52.758;5.076;2024-01-25T06:36:09;102904.78;;;3.13;100.00
74163;BME280;62515;52.758;5.076;2024-01-25T06:38:35;102909.19;;;3.11;100.00
74163;BME280;62515;52.758;5.076;2024-01-25T06:41:03;102903.03;;;3.10;100.00
74163;BME280;62515;52.758;5.076;2024-01-25T06:43:30;102904.81;;;3.07;100.00
74163;BME280;62515;52.758;5.076;2024-01-25T06:45:57;102906.50;;;3.17;100.00
74163;BME280;62515;52.758;5.076;2024-01-25T06:48:24;102914.41;;;3.14;100.00
74163;BME280;62515;52.758;5.076;2024-01-25T06:50:51;102917.91;;;3.16;100.00
74163;BME280;62515;52.758;5.076;2024-01-25T06:53:18;102910.88;;;3.21;100.00
74163;BME280;62515;52.758;5.076;2024-01-25T06:55:45;102902.97;;;3.20;100.00
74163;BME280;62515;52.758;5.076;2024-01-25T06:58:14;102896.81;;;3.19;100.00
74163;BME280;62515;52.758;5.076;2024-01-25T07:00:41;102896.81;;;3.25;100.00
74163;BME280;62515;52.758;5.076;2024-01-25T07:03:08;102898.56;;;3.23;100.00
74163;BME280;62515;52.758;5.076;2024-01-25T07:05:36;102903.88;;;3.17;100.00
74163;BME280;62515;52.758;5.076;2024-01-25T07:08:03;102894.25;;;3.14;100.00
74163;BME280;62515;52.758;5.076;2024-01-25T07:10:30;102889.00;;;3.13;100.00
74163;BME280;62515;52.758;5.076;2024-01-25T07:12:57;102898.63;;;3.14;100.00
74163;BME280;62515;52.758;5.076;2024-01-25T07:15:26;102891.75;;;2.98;100.00
74163;BME280;62515;52.758;5.076;2024-01-25T07:17:52;102907.47;;;3.04;100.00
74163;BME280;62515;52.758;5.076;2024-01-25T07:20:19;102904.84;;;3.05;100.00
74163;BME280;62515;52.758;5.076;2024-01-25T07:22:50;102912.66;;;3.14;100.00
74163;BME280;62515;52.758;5.076;2024-01-25T07:25:17;102909.06;;;3.26;100.00
74163;BME280;62515;52.758;5.076;2024-01-25T07:27:44;102907.31;;;3.28;100.00
74163;BME280;62515;52.758;5.076;2024-01-25T07:30:12;102911.63;;;3.34;100.00
74163;BME280;62515;52.758;5.076;2024-01-25T07:32:40;102909.84;;;3.36;100.00
74163;BME280;62515;52.758;5.076;2024-01-25T07:35:07;102903.78;;;3.26;100.00
74163;BME280;62515;52.758;5.076;2024-01-25T07:37:34;102910.59;;;3.50;100.00
74163;BME280;62515;52.758;5.076;2024-01-25T07:40:01;102919.38;;;3.50;100.00
74163;BME280;62515;52.758;5.076;2024-01-25T07:42:29;102917.59;;;3.52;100.00
74163;BME280;62515;52.758;5.076;2024-01-25T07:44:57;102919.44;;;3.44;100.00
74163;BME280;62515;52.758;5.076;2024-01-25T07:47:24;102912.50;;;3.34;100.00
74163;BME280;62515;52.758;5.076;2024-01-25T07:49:53;102899.44;;;3.25;100.00
74163;BME280;62515;52.758;5.076;2024-01-25T07:52:20;102900.34;;;3.20;100.00
74163;BME280;62515;52.758;5.076;2024-01-25T07:54:49;102904.75;;;3.17;100.00
74163;BME280;62515;52.758;5.076;2024-01-25T07:57:16;102906.44;;;3.23;100.00
74163;BME280;62515;52.758;5.076;2024-01-25T07:59:43;102909.06;;;3.23;100.00
74163;BME280;62515;52.758;5.076;2024-01-25T08:02:10;102914.25;;;3.32;100.00
74163;BME280;62515;52.758;5.076;2024-01-25T08:04:37;102920.47;;;3.22;100.00
74163;BME280;62515;52.758;5.076;2024-01-25T08:07:05;102918.72;;;3.24;100.00
74163;BME280;62515;52.758;5.076;2024-01-25T08:09:32;102920.47;;;3.22;100.00
74163;BME280;62515;52.758;5.076;2024-01-25T08:11:59;102923.09;;;3.28;100.00
74163;BME280;62515;52.758;5.076;2024-01-25T08:14:26;102913.38;;;3.33;100.00
74163;BME280;62515;52.758;5.076;2024-01-25T08:16:53;102913.28;;;3.44;100.00
74163;BME280;62515;52.758;5.076;2024-01-25T08:19:20;102918.53;;;3.45;100.00
74163;BME280;62515;52.758;5.076;2024-01-25T08:21:47;102915.88;;;3.48;100.00
74163;BME280;62515;52.758;5.076;2024-01-25T08:24:15;102918.47;;;3.53;100.00
74163;BME280;62515;52.758;5.076;2024-01-25T08:26:42;102918.44;;;3.54;100.00
74163;BME280;62515;52.758;5.076;2024-01-25T08:29:09;102913.16;;;3.56;100.00
74163;BME280;62515;52.758;5.076;2024-01-25T08:31:36;102919.31;;;3.56;100.00
74163;BME280;62515;52.758;5.076;2024-01-25T08:34:03;102906.97;;;3.61;100.00
74163;BME280;62515;52.758;5.076;2024-01-25T08:36:30;102911.34;;;3.64;100.00
74163;BME280;62515;52.758;5.076;2024-01-25T08:38:57;102903.34;;;3.73;100.00
74163;BME280;62515;52.758;5.076;2024-01-25T08:41:25;102897.22;;;3.71;100.00
74163;BME280;62515;52.758;5.076;2024-01-25T08:43:52;102895.22;;;3.93;100.00
74163;BME280;62515;52.758;5.076;2024-01-25T08:46:19;102905.63;;;4.05;100.00
74163;BME280;62515;52.758;5.076;2024-01-25T08:48:46;102903.75;;;4.13;100.00
74163;BME280;62515;52.758;5.076;2024-01-25T08:51:13;102910.81;;;4.12;100.00
74163;BME280;62515;52.758;5.076;2024-01-25T08:53:39;102922.16;;;4.19;100.00
74163;BME280;62515;52.758;5.076;2024-01-25T08:56:06;102929.22;;;4.14;100.00
74163;BME280;62515;52.758;5.076;2024-01-25T08:58:34;102923.25;;;4.00;100.00
74163;BME280;62515;52.758;5.076;2024-01-25T09:01:01;102921.66;;;3.84;100.00
74163;BME280;62515;52.758;5.076;2024-01-25T09:03:28;102922.44;;;3.92;100.00
74163;BME280;62515;52.758;5.076;2024-01-25T09:05:55;102919.88;;;3.84;100.00
74163;BME280;62515;52.758;5.076;2024-01-25T09:08:22;102910.13;;;3.94;100.00
74163;BME280;62515;52.758;5.076;2024-01-25T09:10:49;102894.34;;;3.92;100.00
74163;BME280;62515;52.758;5.076;2024-01-25T09:13:16;102889.00;;;3.97;100.00
74163;BME280;62515;52.758;5.076;2024-01-25T09:15:44;102898.56;;;4.07;100.00
74163;BME280;62515;52.758;5.076;2024-01-25T09:18:11;102891.38;;;4.19;100.00
74163;BME280;62515;52.758;5.076;2024-01-25T09:20:38;102900.69;;;4.46;100.00
74163;BME280;62515;52.758;5.076;2024-01-25T09:23:05;102897.06;;;4.55;100.00
74163;BME280;62515;52.758;5.076;2024-01-25T09:25:32;102888.25;;;4.57;100.00
74163;BME280;62515;52.758;5.076;2024-01-25T09:27:59;102888.28;;;4.54;100.00
74163;BME280;62515;52.758;5.076;2024-01-25T09:30:26;102903.09;;;4.64;100.00
74163;BME280;62515;52.758;5.076;2024-01-25T09:32:54;102908.13;;;4.80;100.00
74163;BME280;62515;52.758;5.076;2024-01-25T09:35:22;102899.88;;;5.01;100.00
74163;BME280;62515;52.758;5.076;2024-01-25T09:37:49;102898.78;;;5.15;100.00
74163;BME280;62515;52.758;5.076;2024-01-25T09:40:16;102903.06;;;5.21;100.00
74163;BME280;62515;52.758;5.076;2024-01-25T09:42:43;102899.41;;;5.30;100.00
74163;BME280;62515;52.758;5.076;2024-01-25T09:45:16;102900.25;;;5.33;100.00
74163;BME280;62515;52.758;5.076;2024-01-25T09:47:43;102901.84;;;5.42;100.00
74163;BME280;62515;52.758;5.076;2024-01-25T09:50:12;102896.56;;;5.42;100.00
74163;BME280;62515;52.758;5.076;2024-01-25T09:52:39;102891.91;;;5.56;100.00
74163;BME280;62515;52.758;5.076;2024-01-25T09:55:11;102904.00;;;5.69;100.00
74163;BME280;62515;52.758;5.076;2024-01-25T09:57:41;102896.78;;;5.78;100.00
74163;BME280;62515;52.758;5.076;2024-01-25T10:00:12;102913.19;;;5.96;100.00
74163;BME280;62515;52.758;5.076;2024-01-25T10:02:39;102903.16;;;6.13;100.00
74163;BME280;62515;52.758;5.076;2024-01-25T10:05:07;102904.59;;;6.27;100.00
74163;BME280;62515;52.758;5.076;2024-01-25T10:07:40;102912.09;;;6.49;100.00
74163;BME280;62515;52.758;5.076;2024-01-25T10:10:08;102916.44;;;6.51;100.00
74163;BME280;62515;52.758;5.076;2024-01-25T10:12:36;102918.03;;;6.58;100.00
74163;BME280;62515;52.758;5.076;2024-01-25T10:15:04;102926.56;;;6.72;100.00
74163;BME280;62515;52.758;5.076;2024-01-25T10:17:31;102924.50;;;6.85;100.00
74163;BME280;62515;52.758;5.076;2024-01-25T10:20:18;102930.16;;;7.42;100.00
74163;BME280;62515;52.758;5.076;2024-01-25T10:22:47;102920.69;;;8.00;100.00
74163;BME280;62515;52.758;5.076;2024-01-25T10:25:14;102917.69;;;8.10;100.00
74163;BME280;62515;52.758;5.076;2024-01-25T10:27:41;102912.84;;;7.95;100.00
74163;BME280;62515;52.758;5.076;2024-01-25T10:30:10;102907.16;;;8.09;100.00
74163;BME280;62515;52.758;5.076;2024-01-25T10:32:37;102912.56;;;8.04;100.00
74163;BME280;62515;52.758;5.076;2024-01-25T10:35:06;102916.72;;;7.83;100.00
74163;BME280;62515;52.758;5.076;2024-01-25T10:37:36;102922.72;;;7.56;100.00
74163;BME280;62515;52.758;5.076;2024-01-25T10:40:10;102930.78;;;7.52;100.00
74163;BME280;62515;52.758;5.076;2024-01-25T10:42:37;102930.06;;;7.45;100.00
74163;BME280;62515;52.758;5.076;2024-01-25T10:45:05;102934.44;;;7.48;100.00
74163;BME280;62515;52.758;5.076;2024-01-25T10:47:33;102923.78;;;7.49;100.00
74163;BME280;62515;52.758;5.076;2024-01-25T10:50:01;102930.22;;;7.39;100.00
74163;BME280;62515;52.758;5.076;2024-01-25T10:52:28;102933.66;;;7.44;100.00
74163;BME280;62515;52.758;5.076;2024-01-25T10:54:56;102926.34;;;7.54;100.00
74163;BME280;62515;52.758;5.076;2024-01-25T10:57:25;102913.72;;;7.63;100.00
74163;BME280;62515;52.758;5.076;2024-01-25T10:59:52;102902.09;;;7.67;100.00
74163;BME280;62515;52.758;5.076;2024-01-25T11:02:18;102906.84;;;7.88;100.00
74163;BME280;62515;52.758;5.076;2024-01-25T11:04:53;102904.38;;;7.82;100.00
74163;BME280;62515;52.758;5.076;2024-01-25T11:07:20;102895.91;;;7.68;100.00
74163;BME280;62515;52.758;5.076;2024-01-25T11:09:50;102897.75;;;7.66;100.00
74163;BME280;62515;52.758;5.076;2024-01-25T11:12:19;102888.00;;;7.67;100.00
74163;BME280;62515;52.758;5.076;2024-01-25T11:14:53;102875.47;;;7.73;100.00
74163;BME280;62515;52.758;5.076;2024-01-25T11:17:21;102866.91;;;7.64;100.00
74163;BME280;62515;52.758;5.076;2024-01-25T11:19:49;102871.22;;;7.66;100.00
74163;BME280;62515;52.758;5.076;2024-01-25T11:22:15;102876.44;;;7.69;100.00
74163;BME280;62515;52.758;5.076;2024-01-25T11:24:42;102868.16;;;7.81;100.00
74163;BME280;62515;52.758;5.076;2024-01-25T11:27:10;102862.47;;;7.95;100.00
74163;BME280;62515;52.758;5.076;2024-01-25T11:29:37;102873.75;;;8.02;100.00
74163;BME280;62515;52.758;5.076;2024-01-25T11:32:11;102863.75;;;8.11;100.00
74163;BME280;62515;52.758;5.076;2024-01-25T11:34:38;102868.28;;;8.08;100.00
74163;BME280;62515;52.758;5.076;2024-01-25T11:37:05;102870.53;;;8.21;100.00
74163;BME280;62515;52.758;5.076;2024-01-25T11:39:32;102861.91;;;8.44;100.00
74163;BME280;62515;52.758;5.076;2024-01-25T11:41:59;102867.44;;;8.66;100.00
74163;BME280;62515;52.758;5.076;2024-01-25T11:44:26;102852.91;;;8.77;100.00
74163;BME280;62515;52.758;5.076;2024-01-25T11:46:54;102842.31;;;8.76;100.00
74163;BME280;62515;52.758;5.076;2024-01-25T11:49:24;102844.06;;;8.77;100.00
74163;BME280;62515;52.758;5.076;2024-01-25T11:51:51;102840.75;;;8.70;100.00
74163;BME280;62515;52.758;5.076;2024-01-25T11:54:18;102829.31;;;8.40;100.00
74163;BME280;62515;52.758;5.076;2024-01-25T11:56:45;102819.88;;;8.32;100.00
74163;BME280;62515;52.758;5.076;2024-01-25T11:59:13;102814.00;;;8.19;100.00
74163;BME280;62515;52.758;5.076;2024-01-25T12:01:40;102815.75;;;8.20;100.00
74163;BME280;62515;52.758;5.076;2024-01-25T12:04:08;102807.59;;;8.26;100.00
74163;BME280;62515;52.758;5.076;2024-01-25T12:06:37;102795.38;;;8.22;100.00
74163;BME280;62515;52.758;5.076;2024-01-25T12:09:08;102800.50;;;8.27;100.00
74163;BME280;62515;52.758;5.076;2024-01-25T12:11:35;102799.63;;;8.28;100.00
74163;BME280;62515;52.758;5.076;2024-01-25T12:14:02;102795.22;;;8.27;100.00
74163;BME280;62515;52.758;5.076;2024-01-25T12:16:29;102794.25;;;8.31;100.00
74163;BME280;62515;52.758;5.076;2024-01-25T12:18:58;102791.19;;;8.43;100.00
74163;BME280;62515;52.758;5.076;2024-01-25T12:21:25;102790.47;;;8.38;100.00
74163;BME280;62515;52.758;5.076;2024-01-25T12:23:53;102789.19;;;8.51;100.00
74163;BME280;62515;52.758;5.076;2024-01-25T12:26:20;102784.78;;;8.50;100.00
74163;BME280;62515;52.758;5.076;2024-01-25T12:28:47;102785.97;;;8.40;100.00
74163;BME280;62515;52.758;5.076;2024-01-25T12:31:14;102784.53;;;8.30;100.00
74163;BME280;62515;52.758;5.076;2024-01-25T12:33:41;102777.13;;;8.41;100.00
74163;BME280;62515;52.758;5.076;2024-01-25T12:36:09;102767.31;;;8.43;100.00
74163;BME280;62515;52.758;5.076;2024-01-25T12:38:36;102766.47;;;8.69;100.00
74163;BME280;62515;52.758;5.076;2024-01-25T12:41:04;102764.09;;;8.87;100.00
74163;BME280;62515;52.758;5.076;2024-01-25T12:43:31;102754.66;;;9.04;100.00
74163;BME280;62515;52.758;5.076;2024-01-25T12:45:59;102761.88;;;9.25;100.00
74163;BME280;62515;52.758;5.076;2024-01-25T12:48:43;102766.59;;;9.17;100.00
74163;BME280;62515;52.758;5.076;2024-01-25T12:51:12;102761.06;;;9.23;100.00